createdAt,value
2023-01-27T00:00:21.969Z,68.20
2023-01-27T00:02:51.436Z,68.45
2023-01-27T00:05:19.505Z,67.21
2023-01-27T00:07:48.038Z,68.11
2023-01-27T00:10:17.660Z,67.56
2023-01-27T00:13:05.663Z,66.42
2023-01-27T00:15:35.259Z,66.94
2023-01-27T00:18:04.466Z,66.83
2023-01-27T00:20:52.143Z,65.56
2023-01-27T00:23:39.374Z,66.10
2023-01-27T00:26:09.276Z,64.81
2023-01-27T00:28:37.665Z,64.79
2023-01-27T00:31:08.148Z,65.01
2023-01-27T00:33:36.437Z,64.78
2023-01-27T00:36:06.618Z,63.86
2023-01-27T00:38:40.722Z,65.37
2023-01-27T00:41:20.477Z,66.00
2023-01-27T00:43:49.943Z,66.11
2023-01-27T00:46:19.479Z,66.46
2023-01-27T00:48:48.887Z,67.16
2023-01-27T00:51:17.583Z,67.43
2023-01-27T00:53:46.161Z,67.80
2023-01-27T00:56:14.230Z,69.84
2023-01-27T00:58:43.469Z,68.49
2023-01-27T01:01:15.082Z,67.75
2023-01-27T01:03:43.646Z,67.63
2023-01-27T01:06:15.052Z,67.81
2023-01-27T01:08:43.533Z,68.13
2023-01-27T01:11:15.320Z,66.27
2023-01-27T01:13:43.875Z,66.36
2023-01-27T01:16:13.624Z,66.93
2023-01-27T01:18:42.911Z,66.93
2023-01-27T01:21:12.763Z,66.39
2023-01-27T01:23:41.950Z,67.71
2023-01-27T01:26:11.328Z,67.43
2023-01-27T01:28:39.576Z,68.50
2023-01-27T01:31:08.867Z,68.36
2023-01-27T01:33:36.990Z,68.41
2023-01-27T01:36:06.898Z,68.83
2023-01-27T01:38:38.422Z,70.90
2023-01-27T01:41:08.034Z,71.34
2023-01-27T01:43:35.868Z,70.78
2023-01-27T01:46:04.432Z,70.59
2023-01-27T01:48:37.465Z,71.24
2023-01-27T01:51:10.783Z,71.23
2023-01-27T01:53:44.229Z,71.35
2023-01-27T01:56:23.191Z,71.04
2023-01-27T01:58:52.236Z,70.55
2023-01-27T02:01:20.110Z,71.62
2023-01-27T02:03:54.558Z,70.58
2023-01-27T02:06:22.926Z,69.92
2023-01-27T02:08:52.878Z,69.60
2023-01-27T02:11:21.004Z,68.41
2023-01-27T02:13:48.858Z,68.90
2023-01-27T02:16:17.746Z,69.07
2023-01-27T02:18:45.820Z,68.51
2023-01-27T02:21:13.949Z,69.16
2023-01-27T02:23:50.832Z,69.38
2023-01-27T02:26:23.152Z,68.09
2023-01-27T02:28:56.871Z,72.96
2023-01-27T02:31:25.369Z,75.09
2023-01-27T02:33:58.538Z,75.65
2023-01-27T02:36:30.241Z,76.34
2023-01-27T02:39:00.629Z,76.85
2023-01-27T02:41:35.051Z,75.89
2023-01-27T02:44:03.037Z,76.22
2023-01-27T02:46:31.432Z,73.75
2023-01-27T02:48:59.238Z,69.74
2023-01-27T02:51:27.265Z,72.08
2023-01-27T02:53:55.207Z,72.02
2023-01-27T02:56:23.572Z,71.75
2023-01-27T02:58:52.756Z,69.77
2023-01-27T03:01:27.422Z,71.44
2023-01-27T03:03:55.242Z,74.50
2023-01-27T03:06:23.031Z,72.19
2023-01-27T03:08:51.026Z,73.81
2023-01-27T03:11:39.723Z,70.52
2023-01-27T03:14:10.370Z,74.90
2023-01-27T03:16:57.703Z,70.22
2023-01-27T03:19:26.759Z,68.61
2023-01-27T03:21:54.755Z,72.44
2023-01-27T03:24:24.121Z,72.91
2023-01-27T03:26:54.773Z,70.86
2023-01-27T03:29:49.798Z,70.50
2023-01-27T03:32:17.593Z,69.76
2023-01-27T03:34:58.398Z,69.29
2023-01-27T03:37:50.686Z,68.86
2023-01-27T03:40:36.553Z,71.94
2023-01-27T03:43:21.767Z,75.47
2023-01-27T03:46:09.550Z,78.25
2023-01-27T03:48:38.231Z,72.32
2023-01-27T03:51:08.410Z,72.81
2023-01-27T03:53:36.951Z,72.48
2023-01-27T03:56:06.258Z,72.51
2023-01-27T03:58:35.630Z,71.74
2023-01-27T04:01:07.104Z,71.97
2023-01-27T04:03:54.101Z,71.25
2023-01-27T04:06:42.015Z,71.29
2023-01-27T04:09:11.068Z,73.53
2023-01-27T04:11:58.555Z,74.00
2023-01-27T04:14:28.853Z,72.62
2023-01-27T04:17:00.272Z,73.13
2023-01-27T04:19:28.588Z,71.03
2023-01-27T04:21:57.220Z,70.74
2023-01-27T04:24:25.707Z,71.37
2023-01-27T04:26:56.262Z,71.99
2023-01-27T04:29:26.080Z,72.23
2023-01-27T04:31:54.306Z,71.98
2023-01-27T04:34:23.524Z,71.53
2023-01-27T04:36:52.230Z,72.55
2023-01-27T04:39:20.372Z,71.87
2023-01-27T04:41:49.076Z,72.36
2023-01-27T04:44:17.171Z,72.78
2023-01-27T04:46:45.026Z,72.51
2023-01-27T04:49:13.092Z,72.71
2023-01-27T04:51:42.324Z,72.68
2023-01-27T04:54:10.254Z,73.21
2023-01-27T04:56:39.693Z,73.39
2023-01-27T04:59:09.393Z,71.56
2023-01-27T05:01:37.206Z,71.62
2023-01-27T05:04:05.459Z,72.22
2023-01-27T05:06:33.651Z,71.35
2023-01-27T05:09:03.648Z,69.74
2023-01-27T05:11:31.522Z,69.95
2023-01-27T05:13:59.328Z,69.49
2023-01-27T05:16:27.584Z,69.26
2023-01-27T05:18:56.202Z,71.77
2023-01-27T05:21:25.346Z,72.49
2023-01-27T05:23:53.189Z,72.21
2023-01-27T05:26:24.685Z,72.37
2023-01-27T05:28:53.981Z,71.80
2023-01-27T05:31:24.047Z,71.35
2023-01-27T05:33:54.089Z,70.75
2023-01-27T05:36:23.366Z,70.94
2023-01-27T05:38:51.313Z,71.69
2023-01-27T05:41:20.835Z,71.49
2023-01-27T05:43:54.891Z,70.57
2023-01-27T05:46:25.329Z,71.43
2023-01-27T05:48:54.689Z,72.11
2023-01-27T05:51:24.266Z,72.33
2023-01-27T05:53:52.428Z,72.91
2023-01-27T05:56:20.773Z,72.23
2023-01-27T05:58:50.038Z,71.57
2023-01-27T06:01:19.539Z,70.46
2023-01-27T06:03:48.089Z,71.48
2023-01-27T06:06:17.975Z,71.08
2023-01-27T06:08:46.163Z,70.80
2023-01-27T06:11:15.455Z,72.00
2023-01-27T06:13:43.317Z,71.53
2023-01-27T06:16:15.139Z,71.10
2023-01-27T06:18:42.928Z,72.07
2023-01-27T06:21:12.233Z,71.63
2023-01-27T06:23:40.757Z,70.57
2023-01-27T06:26:10.327Z,70.46
2023-01-27T06:28:38.392Z,70.73
2023-01-27T06:31:07.592Z,69.93
2023-01-27T06:33:37.121Z,67.14
2023-01-27T06:36:07.301Z,65.41
2023-01-27T06:38:35.541Z,65.50
2023-01-27T06:41:03.472Z,64.17
2023-01-27T06:43:31.295Z,64.47
2023-01-27T06:45:59.158Z,63.58
2023-01-27T06:48:27.575Z,65.72
2023-01-27T06:50:57.748Z,65.32
2023-01-27T06:53:26.329Z,64.94
2023-01-27T06:55:57.720Z,65.19
2023-01-27T06:58:25.588Z,64.87
2023-01-27T07:00:54.079Z,65.31
2023-01-27T07:03:22.058Z,67.21
2023-01-27T07:05:49.815Z,65.73
2023-01-27T07:08:18.950Z,65.71
2023-01-27T07:10:46.766Z,68.28
2023-01-27T07:13:15.893Z,70.26
2023-01-27T07:15:43.728Z,71.38
2023-01-27T07:18:12.080Z,71.70
2023-01-27T07:20:39.917Z,71.36
2023-01-27T07:23:07.881Z,72.11
2023-01-27T07:25:37.433Z,70.98
2023-01-27T07:28:05.801Z,71.33
2023-01-27T07:30:35.055Z,70.81
2023-01-27T07:33:06.577Z,67.53
2023-01-27T07:35:34.847Z,68.18
2023-01-27T07:38:02.704Z,69.92
2023-01-27T07:40:30.577Z,70.09
2023-01-27T07:43:01.012Z,70.62
2023-01-27T07:45:30.028Z,71.78
2023-01-27T07:48:01.658Z,72.14
2023-01-27T07:50:29.689Z,68.28
2023-01-27T07:53:00.733Z,70.62
2023-01-27T07:55:28.857Z,69.68
2023-01-27T07:57:57.203Z,67.69
2023-01-27T08:00:28.129Z,65.23
2023-01-27T08:02:57.175Z,65.50
2023-01-27T08:05:25.697Z,65.40
2023-01-27T08:07:56.156Z,65.04
2023-01-27T08:10:26.093Z,64.84
2023-01-27T08:12:54.018Z,64.37
2023-01-27T08:15:22.707Z,65.61
2023-01-27T08:17:56.046Z,67.76
2023-01-27T08:20:24.503Z,69.05
2023-01-27T08:22:52.519Z,70.70
2023-01-27T08:25:20.990Z,69.99
2023-01-27T08:27:51.621Z,66.47
2023-01-27T08:30:20.208Z,66.62
2023-01-27T08:32:48.145Z,65.88
2023-01-27T08:35:17.799Z,67.62
2023-01-27T08:37:48.322Z,68.83
2023-01-27T08:40:17.206Z,69.43
2023-01-27T08:42:45.098Z,69.61
2023-01-27T08:45:13.334Z,69.05
2023-01-27T08:47:41.126Z,69.57
2023-01-27T08:50:10.911Z,69.12
2023-01-27T08:52:40.379Z,68.69
2023-01-27T08:55:08.542Z,67.87
2023-01-27T08:57:37.184Z,67.68
2023-01-27T09:00:06.602Z,67.33
2023-01-27T09:02:35.284Z,68.84
2023-01-27T09:05:03.126Z,68.18
2023-01-27T09:07:30.926Z,67.98
2023-01-27T09:10:13.025Z,67.30
2023-01-27T09:12:42.392Z,67.08
2023-01-27T09:15:11.168Z,65.42
2023-01-27T09:17:38.999Z,66.22
2023-01-27T09:20:07.606Z,67.11
2023-01-27T09:22:36.690Z,68.34
2023-01-27T09:25:06.326Z,68.07
2023-01-27T09:27:39.566Z,67.83
2023-01-27T09:30:09.390Z,69.05
2023-01-27T09:32:37.221Z,68.16
2023-01-27T09:35:05.792Z,67.79
2023-01-27T09:37:39.492Z,68.89
2023-01-27T09:40:19.521Z,69.51
2023-01-27T09:43:10.293Z,69.65
2023-01-27T09:45:50.171Z,69.59
2023-01-27T09:48:38.784Z,69.32
2023-01-27T09:51:14.397Z,68.59
2023-01-27T09:54:07.588Z,66.26
2023-01-27T09:56:45.139Z,67.52
2023-01-27T09:59:27.069Z,68.09
2023-01-27T10:02:02.355Z,67.33
2023-01-27T10:04:56.149Z,65.30
2023-01-27T10:07:56.811Z,63.97
2023-01-27T10:10:38.932Z,65.67
2023-01-27T10:13:19.020Z,66.10
2023-01-27T10:15:58.829Z,66.36
2023-01-27T10:18:44.018Z,68.63
2023-01-27T10:21:17.640Z,67.67
2023-01-27T10:23:55.455Z,66.92
2023-01-27T10:26:30.488Z,67.33
2023-01-27T10:29:09.589Z,68.08
2023-01-27T10:31:39.125Z,68.34
2023-01-27T10:34:16.153Z,69.31
2023-01-27T10:36:50.563Z,69.44
2023-01-27T10:39:26.321Z,68.00
2023-01-27T10:42:05.596Z,66.86
2023-01-27T10:44:54.167Z,66.13
2023-01-27T10:47:32.318Z,66.54
2023-01-27T10:50:03.569Z,65.81
2023-01-27T10:52:38.326Z,65.38
2023-01-27T10:55:16.125Z,65.85
2023-01-27T10:57:49.398Z,66.26
2023-01-27T11:03:21.599Z,65.69
2023-01-27T11:05:52.338Z,64.81
2023-01-27T11:08:23.140Z,65.78
2023-01-27T11:11:11.742Z,64.81
2023-01-27T11:13:40.160Z,64.30
2023-01-27T11:16:16.162Z,64.90
2023-01-27T11:18:46.056Z,63.13
2023-01-27T11:21:20.423Z,63.47
2023-01-27T11:23:51.920Z,63.49
2023-01-27T11:26:28.568Z,63.89
2023-01-27T11:29:19.817Z,63.33
2023-01-27T11:31:54.876Z,63.51
2023-01-27T11:34:30.360Z,63.18
2023-01-27T11:36:58.261Z,63.34
2023-01-27T11:39:28.073Z,64.75
2023-01-27T11:41:56.935Z,64.61
2023-01-27T11:44:27.691Z,64.77
2023-01-27T11:46:57.620Z,64.41
2023-01-27T11:49:29.411Z,64.64
2023-01-27T11:52:05.668Z,62.52
2023-01-27T11:54:42.024Z,63.51
2023-01-27T11:57:19.187Z,64.66
2023-01-27T11:59:48.158Z,64.35
2023-01-27T12:02:27.447Z,64.82
2023-01-27T12:05:02.331Z,64.57
2023-01-27T12:07:39.316Z,64.08
2023-01-27T12:10:23.270Z,61.42
2023-01-27T12:12:51.180Z,61.83
2023-01-27T12:15:21.282Z,60.70
2023-01-27T12:17:54.001Z,60.88
2023-01-27T12:20:32.216Z,59.93
2023-01-27T12:23:03.839Z,60.24
2023-01-27T12:25:42.180Z,59.34
2023-01-27T12:28:26.891Z,60.97
2023-01-27T12:30:56.711Z,60.53
2023-01-27T12:33:30.600Z,61.27
2023-01-27T12:36:01.067Z,61.42
2023-01-27T12:38:35.299Z,60.85
2023-01-27T12:41:05.576Z,61.49
2023-01-27T12:43:33.424Z,61.04
2023-01-27T12:46:07.375Z,61.83
2023-01-27T12:48:46.472Z,61.91
2023-01-27T12:51:17.143Z,61.63
2023-01-27T12:53:45.037Z,61.11
2023-01-27T12:56:15.727Z,62.03
2023-01-27T12:58:46.248Z,59.99
2023-01-27T13:01:26.864Z,60.50
2023-01-27T13:04:00.181Z,61.98
2023-01-27T13:06:34.793Z,61.44
2023-01-27T13:09:04.020Z,62.53
2023-01-27T13:11:37.208Z,62.25
2023-01-27T13:14:09.114Z,61.53
2023-01-27T13:16:38.589Z,61.08
2023-01-27T13:19:18.771Z,61.54
2023-01-27T13:21:50.203Z,60.88
2023-01-27T13:24:22.717Z,60.60
2023-01-27T13:26:52.597Z,60.73
2023-01-27T13:29:26.959Z,60.93
2023-01-27T13:31:59.594Z,61.27
2023-01-27T13:34:38.062Z,60.86
2023-01-27T13:37:13.073Z,60.08
2023-01-27T13:40:02.304Z,60.74
2023-01-27T13:42:37.823Z,60.96
2023-01-27T13:45:11.934Z,61.12
2023-01-27T13:47:52.008Z,61.75
2023-01-27T13:50:27.922Z,62.10
2023-01-27T13:52:59.551Z,62.09
2023-01-27T13:55:56.158Z,62.16
2023-01-27T13:58:34.442Z,60.56
2023-01-27T14:01:11.545Z,60.59
2023-01-27T14:04:05.358Z,58.57
2023-01-27T14:06:45.949Z,58.01
2023-01-27T14:09:26.069Z,57.77
2023-01-27T14:12:03.297Z,59.58
2023-01-27T14:14:56.026Z,59.57
2023-01-27T14:17:39.492Z,59.25
2023-01-27T14:20:30.930Z,59.90
2023-01-27T14:23:18.856Z,59.66
2023-01-27T14:25:56.773Z,57.43
2023-01-27T14:28:35.763Z,57.28
2023-01-27T14:31:11.900Z,57.50
2023-01-27T14:33:56.123Z,57.19
2023-01-27T14:36:30.662Z,57.50
2023-01-27T14:39:16.139Z,58.01
2023-01-27T14:41:48.675Z,55.60
2023-01-27T14:44:33.771Z,57.64
2023-01-27T14:47:18.153Z,57.69
2023-01-27T14:49:57.375Z,57.76
2023-01-27T14:52:37.643Z,57.04
2023-01-27T14:55:23.297Z,58.17
2023-01-27T14:57:58.687Z,58.07
2023-01-27T15:00:46.908Z,58.80
2023-01-27T15:03:40.110Z,59.71
2023-01-27T15:06:15.708Z,60.33
2023-01-27T15:08:50.344Z,60.27
2023-01-27T15:11:36.025Z,61.34
2023-01-27T15:14:37.207Z,61.45
2023-01-27T15:17:22.949Z,60.97
2023-01-27T15:20:23.896Z,61.33
2023-01-27T15:23:07.370Z,61.09
2023-01-27T15:25:39.605Z,61.27
2023-01-27T15:28:14.585Z,61.66
2023-01-27T15:31:09.822Z,62.01
2023-01-27T15:33:51.171Z,61.23
2023-01-27T15:36:31.748Z,61.71
2023-01-27T15:39:18.902Z,60.84
2023-01-27T15:42:12.730Z,59.38
2023-01-27T15:44:58.182Z,60.66
2023-01-27T15:47:28.043Z,60.35
2023-01-27T15:50:06.499Z,60.82
2023-01-27T15:52:41.304Z,60.58
2023-01-27T15:55:24.463Z,60.04
2023-01-27T15:58:02.795Z,58.96
2023-01-27T16:00:35.766Z,61.15
2023-01-27T16:03:06.035Z,61.26
2023-01-27T16:05:38.411Z,61.06
2023-01-27T16:08:14.811Z,61.00
2023-01-27T16:10:43.509Z,61.54
2023-01-27T16:13:29.755Z,62.53
2023-01-27T16:16:30.165Z,61.98
2023-01-27T16:19:06.838Z,62.45
2023-01-27T16:21:47.555Z,62.79
2023-01-27T16:24:23.995Z,62.97
2023-01-27T16:26:56.379Z,63.64
2023-01-27T16:29:39.614Z,63.09
2023-01-27T16:32:17.356Z,62.88
2023-01-27T16:34:49.163Z,64.26
2023-01-27T16:37:23.373Z,64.26
2023-01-27T16:39:59.759Z,64.05
2023-01-27T16:42:31.735Z,63.56
2023-01-27T16:45:02.834Z,66.72
2023-01-27T16:47:42.352Z,65.81
2023-01-27T16:50:32.940Z,65.14
2023-01-27T16:53:01.965Z,64.40
2023-01-27T16:55:29.980Z,64.52
2023-01-27T16:57:59.630Z,64.86
2023-01-27T17:00:30.148Z,65.11
2023-01-27T17:03:03.715Z,65.60
2023-01-27T17:05:31.772Z,64.95
2023-01-27T17:08:05.231Z,65.00
2023-01-27T17:10:35.004Z,64.62
2023-01-27T17:13:03.384Z,67.45
2023-01-27T17:15:36.028Z,69.58
2023-01-27T17:18:10.061Z,63.85
2023-01-27T17:20:41.836Z,60.93
2023-01-27T17:23:22.444Z,62.38
2023-01-27T17:25:51.063Z,64.47
2023-01-27T17:28:22.367Z,64.08
2023-01-27T17:30:50.656Z,62.41
2023-01-27T17:33:22.449Z,63.33
2023-01-27T17:35:52.321Z,62.48
2023-01-27T17:38:23.550Z,63.01
2023-01-27T17:40:53.224Z,63.34
2023-01-27T17:43:27.617Z,60.24
2023-01-27T17:46:13.181Z,61.10
2023-01-27T17:48:48.115Z,62.58
2023-01-27T17:51:21.283Z,63.64
2023-01-27T17:53:51.049Z,64.35
2023-01-27T17:56:22.220Z,63.98
2023-01-27T17:58:53.705Z,63.36
2023-01-27T18:01:22.910Z,64.63
2023-01-27T18:03:55.757Z,63.96
2023-01-27T18:06:26.469Z,64.41
2023-01-27T18:08:55.822Z,64.11
2023-01-27T18:11:32.749Z,64.09
2023-01-27T18:14:07.522Z,64.87
2023-01-27T18:16:36.293Z,64.86
2023-01-27T18:19:20.507Z,65.02
2023-01-27T18:21:48.416Z,64.74
2023-01-27T18:24:21.661Z,64.71
2023-01-27T18:26:50.033Z,64.43
2023-01-27T18:29:23.165Z,64.02
2023-01-27T18:31:54.851Z,64.88
2023-01-27T18:34:28.050Z,64.93
2023-01-27T18:36:58.032Z,64.55
2023-01-27T18:39:30.433Z,64.11
2023-01-27T18:41:58.315Z,64.08
2023-01-27T18:44:34.385Z,63.81
2023-01-27T18:47:27.732Z,63.54
2023-01-27T18:50:01.257Z,63.60
2023-01-27T18:52:29.332Z,64.03
2023-01-27T18:55:01.979Z,64.36
2023-01-27T18:57:29.850Z,64.24
2023-01-27T18:59:57.581Z,62.15
2023-01-27T19:02:25.648Z,62.58
2023-01-27T19:04:53.488Z,63.47
2023-01-27T19:07:22.609Z,63.32
2023-01-27T19:09:50.425Z,63.08
2023-01-27T19:12:18.305Z,61.43
2023-01-27T19:14:48.338Z,60.71
2023-01-27T19:17:22.593Z,61.44
2023-01-27T19:19:50.731Z,61.92
2023-01-27T19:22:20.858Z,61.75
2023-01-27T19:24:50.655Z,62.18
2023-01-27T19:27:20.082Z,61.49
2023-01-27T19:29:48.141Z,61.42
2023-01-27T19:32:16.942Z,62.21
2023-01-27T19:34:44.683Z,61.89
2023-01-27T19:37:17.800Z,61.19
2023-01-27T19:39:46.040Z,61.23
2023-01-27T19:42:16.620Z,61.21
2023-01-27T19:44:44.387Z,60.92
2023-01-27T19:47:13.300Z,60.30
2023-01-27T19:49:41.240Z,60.28
2023-01-27T19:52:10.012Z,59.59
2023-01-27T19:54:37.820Z,59.82
2023-01-27T19:57:06.342Z,59.42
2023-01-27T19:59:35.469Z,60.06
2023-01-27T20:02:03.293Z,59.27
2023-01-27T20:04:31.139Z,59.20
2023-01-27T20:06:58.994Z,59.17
2023-01-27T20:09:26.933Z,57.12
2023-01-27T20:11:54.745Z,56.23
2023-01-27T20:14:25.747Z,55.26
2023-01-27T20:16:55.270Z,58.10
2023-01-27T20:19:23.061Z,58.34
2023-01-27T20:21:51.070Z,58.90
2023-01-27T20:24:20.171Z,58.12
2023-01-27T20:26:48.136Z,58.53
2023-01-27T20:29:16.000Z,58.10
2023-01-27T20:31:43.920Z,57.31
2023-01-27T20:34:13.196Z,56.52
2023-01-27T20:36:40.912Z,57.00
2023-01-27T20:39:08.740Z,56.62
2023-01-27T20:41:36.559Z,55.64
2023-01-27T20:44:04.350Z,56.02
2023-01-27T20:46:32.148Z,55.88
2023-01-27T20:49:00.542Z,58.01
2023-01-27T20:51:29.775Z,58.15
2023-01-27T20:54:00.016Z,58.61
2023-01-27T20:56:27.994Z,58.13
2023-01-27T20:58:55.734Z,59.17
2023-01-27T21:01:25.021Z,58.58
2023-01-27T21:03:53.073Z,58.37
2023-01-27T21:06:21.371Z,57.89
2023-01-27T21:08:50.612Z,57.39
2023-01-27T21:11:20.565Z,58.05
2023-01-27T21:13:49.107Z,58.17
2023-01-27T21:16:17.114Z,58.22
2023-01-27T21:18:45.083Z,60.79
2023-01-27T21:21:23.330Z,60.92
2023-01-27T21:23:52.841Z,60.00
2023-01-27T21:26:21.168Z,58.88
2023-01-27T21:28:48.985Z,58.39
2023-01-27T21:31:19.018Z,58.82
2023-01-27T21:33:48.037Z,57.76
2023-01-27T21:36:16.050Z,58.08
2023-01-27T21:38:44.114Z,57.35
2023-01-27T21:41:36.576Z,54.90
2023-01-27T21:44:23.283Z,55.69
2023-01-27T21:46:51.106Z,55.81
2023-01-27T21:49:19.018Z,55.51
2023-01-27T21:51:49.151Z,57.03
2023-01-27T21:54:17.894Z,57.43
2023-01-27T21:56:47.010Z,57.98
2023-01-27T21:59:14.902Z,57.85
2023-01-27T22:01:42.673Z,57.60
2023-01-27T22:04:10.554Z,57.58
2023-01-27T22:06:38.724Z,57.16
2023-01-27T22:09:06.469Z,56.98
2023-01-27T22:11:34.210Z,58.43
2023-01-27T22:14:03.399Z,58.29
2023-01-27T22:16:31.260Z,57.98
2023-01-27T22:18:59.191Z,57.12
2023-01-27T22:21:27.020Z,57.63
2023-01-27T22:23:55.150Z,56.86
2023-01-27T22:26:23.297Z,57.10
2023-01-27T22:28:51.242Z,57.39
2023-01-27T22:31:20.563Z,56.68
2023-01-27T22:33:48.422Z,56.43
2023-01-27T22:36:16.387Z,56.33
2023-01-27T22:38:44.232Z,56.31
2023-01-27T22:41:12.224Z,56.39
2023-01-27T22:43:40.212Z,56.24
2023-01-27T22:46:08.404Z,55.92
2023-01-27T22:48:37.775Z,55.91
2023-01-27T22:51:07.149Z,56.33
2023-01-27T22:53:35.668Z,55.85
2023-01-27T22:56:05.314Z,55.65
2023-01-27T22:58:33.471Z,56.92
2023-01-27T23:01:01.429Z,56.61
2023-01-27T23:03:29.317Z,55.86
2023-01-27T23:05:58.637Z,55.65
2023-01-27T23:08:27.256Z,55.73
2023-01-27T23:10:55.242Z,55.55
2023-01-27T23:13:23.397Z,55.58
2023-01-27T23:15:52.094Z,54.99
2023-01-27T23:18:20.271Z,54.76
2023-01-27T23:20:48.097Z,55.58
2023-01-27T23:23:19.279Z,55.92
2023-01-27T23:25:48.709Z,55.75
2023-01-27T23:28:19.383Z,55.86
2023-01-27T23:30:49.314Z,55.06
2023-01-27T23:33:18.780Z,55.28
2023-01-27T23:35:47.270Z,55.58
2023-01-27T23:38:31.311Z,56.05
2023-01-27T23:41:03.657Z,56.04
2023-01-27T23:43:32.082Z,56.96
2023-01-27T23:46:00.584Z,57.33
2023-01-27T23:48:28.721Z,59.29
2023-01-27T23:50:56.516Z,56.87
2023-01-27T23:53:24.529Z,58.06
2023-01-27T23:55:56.482Z,59.51
2023-01-27T23:58:26.140Z,59.99
